Time;durP1;ratioP1;P1;durP2;ratioP2;P2;SDS_P1;SDS_P2;PMS_P1;PMS_P2;Temp;Humidity;BMP_temperature;BMP_pressure;BME280_temperature;BME280_humidity;BME280_pressure;Samples;Min_cycle;Max_cycle;Signal;HPM_P1;HPM_P2
2022/09/28 00:01:06;;;;;;;1.45;1.35;;;23.00;53.90;;;;;;5027471;28;20052;-64
2022/09/28 00:03:33;;;;;;;2.08;1.50;;;23.00;53.90;;;;;;5027769;28;20073;-64
2022/09/28 00:06:02;;;;;;;1.13;0.80;;;23.00;53.90;;;;;;5028397;28;20049;-64
2022/09/28 00:08:30;;;;;;;1.45;1.35;;;23.00;53.90;;;;;;5026650;28;20104;-64
2022/09/28 00:10:57;;;;;;;1.35;1.15;;;23.00;53.90;;;;;;5025202;28;20045;-64
2022/09/28 00:13:24;;;;;;;2.63;1.30;;;23.00;53.90;;;;;;5027904;28;20053;-64
2022/09/28 00:16:00;;;;;;;1.48;1.00;;;23.00;53.90;;;;;;5028056;28;20049;-64
2022/09/28 00:18:27;;;;;;;1.38;1.00;;;23.00;53.90;;;;;;5027648;28;20049;-64
2022/09/28 00:21:04;;;;;;;1.98;1.00;;;22.90;53.80;;;;;;5027568;28;20041;-64
2022/09/28 00:23:32;;;;;;;1.13;1.02;;;23.00;53.90;;;;;;5028123;28;20073;-64
2022/09/28 00:26:03;;;;;;;1.50;1.10;;;23.00;53.90;;;;;;5028243;28;20357;-64
2022/09/28 00:28:30;;;;;;;1.13;0.90;;;23.00;54.00;;;;;;5027879;28;20551;-64
2022/09/28 00:30:58;;;;;;;1.20;1.08;;;22.90;54.00;;;;;;5027933;28;20053;-64
2022/09/28 00:33:25;;;;;;;0.82;0.82;;;23.00;54.00;;;;;;5027677;28;20405;-64
2022/09/28 00:35:58;;;;;;;1.30;1.02;;;22.90;54.00;;;;;;5027864;28;20068;-64
2022/09/28 00:38:29;;;;;;;1.02;1.00;;;22.90;54.00;;;;;;5027572;28;20049;-64
2022/09/28 00:40:56;;;;;;;1.08;1.08;;;22.90;54.00;;;;;;5024075;28;20399;-64
2022/09/28 00:43:24;;;;;;;0.98;0.93;;;22.90;54.00;;;;;;5027633;28;20406;-64
2022/09/28 00:46:18;;;;;;;1.55;1.10;;;22.90;54.10;;;;;;5027923;28;20076;-64
2022/09/28 00:49:06;;;;;;;0.70;0.70;;;22.90;54.00;;;;;;5027881;28;20041;-64
2022/09/28 00:51:36;;;;;;;0.80;0.80;;;22.90;54.00;;;;;;5027186;28;20041;-64
2022/09/28 00:54:06;;;;;;;1.00;0.90;;;22.90;54.00;;;;;;5027212;28;20486;-64
2022/09/28 00:56:37;;;;;;;1.75;1.05;;;22.90;54.00;;;;;;5028000;28;20046;-64
2022/09/28 00:59:06;;;;;;;3.25;1.30;;;22.90;54.00;;;;;;5027747;28;20457;-64
2022/09/28 01:01:34;;;;;;;1.07;1.07;;;22.90;53.90;;;;;;5026362;28;20518;-64
2022/09/28 01:04:02;;;;;;;1.10;1.08;;;22.90;53.90;;;;;;5027698;28;20142;-64
2022/09/28 01:06:34;;;;;;;1.02;0.85;;;23.00;53.90;;;;;;5031427;28;20050;-64
2022/09/28 01:09:07;;;;;;;1.55;1.00;;;23.00;53.90;;;;;;5031132;28;20497;-64
2022/09/28 01:11:38;;;;;;;1.83;1.15;;;22.90;53.80;;;;;;5030750;28;20045;-64
2022/09/28 01:14:09;;;;;;;1.08;0.88;;;23.00;53.80;;;;;;5027034;28;20049;-64
2022/09/28 01:17:05;;;;;;;1.60;0.73;;;22.90;53.80;;;;;;5030468;28;20080;-64
2022/09/28 01:20:05;;;;;;;1.30;1.20;;;23.00;53.80;;;;;;5031229;28;20064;-64
2022/09/28 01:23:12;;;;;;;0.80;0.80;;;23.00;53.80;;;;;;5031523;28;20052;-64
2022/09/28 01:25:57;;;;;;;0.77;0.77;;;23.00;53.70;;;;;;5043658;28;20053;-64
2022/09/28 01:28:27;;;;;;;0.95;0.90;;;23.00;53.70;;;;;;5030719;28;20049;-64
2022/09/28 01:31:02;;;;;;;;;;;22.90;53.70;;;;;;5029698;28;20057;-64
2022/09/28 01:33:44;;;;;;;1.08;0.65;;;22.90;53.60;;;;;;5030479;28;20381;-64
2022/09/28 01:36:22;;;;;;;1.33;0.93;;;22.90;53.70;;;;;;5030856;28;20520;-64
2022/09/28 01:38:54;;;;;;;3.22;1.15;;;22.90;53.70;;;;;;5030691;28;20045;-64
2022/09/28 01:41:24;;;;;;;1.38;0.63;;;22.90;53.70;;;;;;5030308;28;20307;-64
2022/09/28 01:43:56;;;;;;;1.13;0.82;;;22.90;53.70;;;;;;5045878;28;20101;-64
2022/09/28 01:46:29;;;;;;;0.80;0.80;;;22.90;53.70;;;;;;5025760;28;20045;-64
2022/09/28 01:48:57;;;;;;;1.63;1.00;;;22.90;53.70;;;;;;5030689;28;20050;-64
2022/09/28 01:51:37;;;;;;;0.93;0.75;;;22.90;53.70;;;;;;5030195;28;20433;-64
2022/09/28 01:54:11;;;;;;;1.15;1.05;;;22.90;53.70;;;;;;5030740;28;20060;-64
2022/09/28 01:56:56;;;;;;;1.65;1.02;;;22.90;53.70;;;;;;5030410;28;20041;-64
2022/09/28 01:59:26;;;;;;;0.93;0.60;;;22.90;53.70;;;;;;5029229;28;20049;-64
2022/09/28 02:02:10;;;;;;;;;;;22.90;53.70;;;;;;5030692;28;20421;-64
2022/09/28 02:04:57;;;;;;;0.75;0.70;;;22.90;53.70;;;;;;5029913;28;19921;-64
2022/09/28 02:07:46;;;;;;;0.80;0.80;;;22.90;53.70;;;;;;5025368;28;20045;-64
2022/09/28 02:10:23;;;;;;;1.33;1.00;;;22.90;53.70;;;;;;5009870;28;20042;-64
2022/09/28 02:13:16;;;;;;;0.85;0.70;;;22.90;53.80;;;;;;5009631;28;20042;-64
2022/09/28 02:15:55;;;;;;;1.27;1.02;;;22.80;53.70;;;;;;5010159;28;20077;-64
2022/09/28 02:18:23;;;;;;;0.90;0.90;;;22.80;53.80;;;;;;5005357;28;20089;-64
2022/09/28 02:20:59;;;;;;;0.77;0.77;;;22.80;54.40;;;;;;5009006;28;20046;-64
2022/09/28 02:23:29;;;;;;;0.85;0.70;;;22.90;53.90;;;;;;4992535;28;20514;-64
2022/09/28 02:26:04;;;;;;;0.60;0.60;;;22.80;53.80;;;;;;5010508;28;20046;-64
2022/09/28 02:28:31;;;;;;;1.10;0.63;;;22.80;53.90;;;;;;5009891;28;20295;-64
2022/09/28 02:30:58;;;;;;;0.70;0.70;;;22.80;53.80;;;;;;5009836;28;20046;-64
2022/09/28 02:33:33;;;;;;;0.90;0.75;;;22.80;53.90;;;;;;5024040;28;20056;-64
2022/09/28 02:36:02;;;;;;;0.70;0.70;;;22.80;53.90;;;;;;5010139;28;20478;-64
2022/09/28 02:38:31;;;;;;;0.90;0.80;;;22.80;53.90;;;;;;5010034;28;20129;-64
2022/09/28 02:41:17;;;;;;;0.73;0.63;;;22.80;53.90;;;;;;5009913;28;20050;-64
2022/09/28 02:44:02;;;;;;;1.17;0.80;;;22.80;53.90;;;;;;5009482;28;20060;-64
2022/09/28 02:47:03;;;;;;;1.17;1.08;;;22.80;53.90;;;;;;5009968;28;20041;-64
2022/09/28 02:49:45;;;;;;;0.70;0.70;;;22.80;53.90;;;;;;5005794;28;20054;-64
2022/09/28 02:52:46;;;;;;;0.95;0.60;;;22.80;53.80;;;;;;5009670;28;20066;-64
2022/09/28 02:55:37;;;;;;;0.80;0.60;;;22.80;53.80;;;;;;5008720;28;20053;-64
2022/09/28 02:58:43;;;;;;;0.85;0.63;;;22.90;53.80;;;;;;5009529;28;20046;-64
2022/09/28 03:01:47;;;;;;;0.85;0.85;;;22.90;53.70;;;;;;5009019;28;20464;-65
2022/09/28 03:04:35;;;;;;;0.85;0.63;;;22.80;53.60;;;;;;5008338;28;20085;-64
2022/09/28 03:07:20;;;;;;;2.45;0.98;;;22.80;53.60;;;;;;5010195;28;20057;-64
2022/09/28 03:10:11;;;;;;;0.80;0.80;;;22.80;53.60;;;;;;5029367;28;20397;-64
2022/09/28 03:12:40;;;;;;;0.70;0.70;;;22.80;53.60;;;;;;5027080;28;20049;-64
2022/09/28 03:15:27;;;;;;;0.70;0.52;;;22.90;53.60;;;;;;5029328;28;20517;-64
2022/09/28 03:17:56;;;;;;;0.63;0.60;;;22.80;53.60;;;;;;5028756;28;20049;-64
2022/09/28 03:20:24;;;;;;;1.08;0.77;;;22.90;53.60;;;;;;5028342;28;20049;-64
2022/09/28 03:22:51;;;;;;;1.60;0.70;;;22.80;53.50;;;;;;5040444;28;20050;-64
2022/09/28 03:25:38;;;;;;;0.65;0.57;;;22.90;53.60;;;;;;5027582;28;20099;-64
2022/09/28 03:28:05;;;;;;;0.47;0.40;;;22.80;53.50;;;;;;5028147;28;20060;-64
2022/09/28 03:30:32;;;;;;;0.60;0.60;;;22.80;53.50;;;;;;5028829;28;20061;-64
2022/09/28 03:33:01;;;;;;;0.98;0.63;;;22.80;53.50;;;;;;5028198;28;20353;-64
2022/09/28 03:35:28;;;;;;;0.60;0.60;;;22.80;53.50;;;;;;5028718;28;20045;-64
2022/09/28 03:37:55;;;;;;;0.75;0.70;;;22.80;53.50;;;;;;5028341;28;20049;-64
2022/09/28 03:40:23;;;;;;;0.88;0.60;;;22.90;53.50;;;;;;5028358;28;20053;-64
2022/09/28 03:42:50;;;;;;;0.45;0.45;;;22.80;53.50;;;;;;5027721;28;20055;-64
2022/09/28 03:45:17;;;;;;;0.70;0.65;;;22.80;53.50;;;;;;5028692;28;20398;-65
2022/09/28 03:47:45;;;;;;;0.60;0.60;;;22.80;53.50;;;;;;5028786;28;20045;-64
2022/09/28 03:50:13;;;;;;;1.05;0.50;;;22.80;53.50;;;;;;5027982;28;20513;-64
2022/09/28 03:52:40;;;;;;;0.88;0.68;;;22.80;53.50;;;;;;5024577;28;20044;-64
2022/09/28 03:55:07;;;;;;;1.17;0.70;;;22.80;53.50;;;;;;5024875;28;20056;-64
2022/09/28 03:57:34;;;;;;;0.73;0.73;;;22.80;53.60;;;;;;5028364;28;20061;-64
2022/09/28 04:00:03;;;;;;;0.60;0.60;;;22.80;53.50;;;;;;5028242;28;20490;-64
2022/09/28 04:02:30;;;;;;;0.70;0.70;;;22.80;53.50;;;;;;5027026;28;20347;-64
2022/09/28 04:04:58;;;;;;;0.60;0.60;;;22.80;53.50;;;;;;5026856;28;20491;-64
2022/09/28 04:07:25;;;;;;;0.77;0.75;;;22.80;53.60;;;;;;5021231;28;20048;-64
2022/09/28 04:09:57;;;;;;;1.00;0.63;;;22.80;53.50;;;;;;5027228;28;20049;-64
2022/09/28 04:12:24;;;;;;;0.52;0.52;;;22.70;53.50;;;;;;5027944;28;20056;-64
2022/09/28 04:14:51;;;;;;;0.80;0.50;;;22.80;53.60;;;;;;5027448;28;20050;-64
2022/09/28 04:17:18;;;;;;;1.05;0.70;;;22.70;53.50;;;;;;5027759;28;20552;-64
2022/09/28 04:19:46;;;;;;;0.60;0.60;;;22.70;53.60;;;;;;5027575;28;20056;-64
2022/09/28 04:22:13;;;;;;;0.40;0.40;;;22.70;53.60;;;;;;5028094;28;20053;-64
2022/09/28 04:24:42;;;;;;;0.63;0.63;;;22.70;53.60;;;;;;5023323;28;20057;-64
2022/09/28 04:29:56;;;;;;;0.77;0.50;;;22.70;53.60;;;;;;5026592;28;20048;-64
2022/09/28 04:32:23;;;;;;;1.27;0.70;;;22.70;53.60;;;;;;5027376;28;20053;-65
2022/09/28 04:34:50;;;;;;;1.25;0.70;;;22.70;53.60;;;;;;5025894;28;20045;-64
2022/09/28 04:37:17;;;;;;;0.35;0.35;;;22.70;53.60;;;;;;5028702;28;20042;-64
2022/09/28 04:39:44;;;;;;;2.47;0.60;;;22.70;53.50;;;;;;5030349;28;20249;-64
2022/09/28 04:42:14;;;;;;;1.20;0.70;;;22.70;53.40;;;;;;5029825;28;20406;-64
2022/09/28 04:44:41;;;;;;;0.65;0.50;;;22.80;53.30;;;;;;5041202;28;20049;-64
2022/09/28 04:47:08;;;;;;;0.63;0.57;;;22.80;53.30;;;;;;5051251;28;20296;-64
2022/09/28 04:49:37;;;;;;;0.60;0.60;;;22.80;53.20;;;;;;5052028;28;20053;-64
2022/09/28 04:52:05;;;;;;;0.90;0.82;;;22.70;53.10;;;;;;5051653;28;20452;-64
2022/09/28 04:54:33;;;;;;;1.27;0.68;;;22.80;53.20;;;;;;5048566;28;20052;-64
2022/09/28 04:57:00;;;;;;;0.70;0.60;;;22.70;53.20;;;;;;5050507;28;20041;-64
2022/09/28 04:59:27;;;;;;;1.08;0.73;;;22.70;53.20;;;;;;5048026;28;20053;-63
2022/09/28 05:01:55;;;;;;;1.40;0.95;;;22.70;53.10;;;;;;5051723;28;20049;-64
2022/09/28 05:04:22;;;;;;;0.65;0.50;;;22.80;53.10;;;;;;5047045;28;20547;-64
2022/09/28 05:06:52;;;;;;;0.60;0.60;;;22.70;53.10;;;;;;5029354;28;20045;-64
2022/09/28 05:09:19;;;;;;;0.68;0.68;;;22.70;53.00;;;;;;5027797;28;20038;-64
2022/09/28 05:11:48;;;;;;;1.00;0.80;;;22.80;53.00;;;;;;5030740;28;20054;-64
2022/09/28 05:14:16;;;;;;;2.15;1.17;;;22.80;53.60;;;;;;5027793;28;20060;-64
2022/09/28 05:16:44;;;;;;;1.08;0.63;;;22.80;53.00;;;;;;5025623;28;20486;-64
2022/09/28 05:19:11;;;;;;;1.20;1.10;;;22.70;52.90;;;;;;5032501;28;20128;-59
2022/09/28 05:21:39;;;;;;;0.98;0.85;;;22.70;52.90;;;;;;5029228;28;20060;-63
2022/09/28 05:24:07;;;;;;;1.65;0.98;;;22.70;53.00;;;;;;5029581;28;20064;-62
2022/09/28 05:26:34;;;;;;;1.20;1.10;;;22.80;53.20;;;;;;5036206;28;20046;-62
2022/09/28 05:29:01;;;;;;;0.82;0.82;;;22.70;53.30;;;;;;5026572;28;20049;-62
2022/09/28 05:31:29;;;;;;;1.63;1.20;;;22.80;53.30;;;;;;5013646;28;20049;-62
2022/09/28 05:33:56;;;;;;;1.10;0.95;;;22.80;53.40;;;;;;5026179;28;20041;-62
2022/09/28 05:36:25;;;;;;;1.20;1.10;;;22.80;53.30;;;;;;5022873;28;20046;-62
2022/09/28 05:38:53;;;;;;;8.03;1.10;;;22.80;53.30;;;;;;5023023;28;20065;-62
2022/09/28 05:41:20;;;;;;;2.50;1.00;;;22.90;53.40;;;;;;5027380;28;20049;-63
2022/09/28 05:43:47;;;;;;;1.67;1.10;;;22.90;53.40;;;;;;5022597;28;20056;-63
2022/09/28 05:46:15;;;;;;;3.75;1.27;;;22.90;53.30;;;;;;5020332;28;20132;-63
2022/09/28 05:48:42;;;;;;;1.27;1.15;;;22.90;53.10;;;;;;5020943;28;20045;-63
2022/09/28 05:51:09;;;;;;;3.40;1.33;;;22.90;53.00;;;;;;5019361;28;20049;-63
2022/09/28 05:53:37;;;;;;;0.90;0.90;;;22.90;53.60;;;;;;5025983;28;20057;-63
2022/09/28 05:56:04;;;;;;;4.93;1.52;;;23.00;53.20;;;;;;5024826;28;20054;-63
2022/09/28 05:58:31;;;;;;;1.30;1.17;;;23.00;53.00;;;;;;5024234;28;20057;-63
2022/09/28 06:00:58;;;;;;;4.15;1.30;;;23.00;52.80;;;;;;5022553;28;20064;-64
2022/09/28 06:03:27;;;;;;;2.85;1.45;;;23.00;52.60;;;;;;5019895;28;20046;-63
2022/09/28 06:05:54;;;;;;;3.92;1.70;;;23.00;52.50;;;;;;5025297;28;20057;-62
2022/09/28 06:08:21;;;;;;;4.10;1.15;;;23.10;52.40;;;;;;5022450;28;20049;-61
2022/09/28 06:10:48;;;;;;;1.33;1.10;;;23.10;52.30;;;;;;5021371;28;20037;-60
2022/09/28 06:13:16;;;;;;;2.85;1.35;;;23.10;52.50;;;;;;5021673;28;20049;-61
2022/09/28 06:15:45;;;;;;;2.03;1.42;;;23.10;52.70;;;;;;5022028;28;20873;-62
2022/09/28 06:18:13;;;;;;;3.20;1.08;;;23.10;52.70;;;;;;5019351;28;20045;-61
2022/09/28 06:20:41;;;;;;;5.03;1.40;;;23.20;52.80;;;;;;5022629;28;20379;-61
2022/09/28 06:23:10;;;;;;;2.38;1.13;;;23.20;52.80;;;;;;5021807;28;20053;-60
2022/09/28 06:25:38;;;;;;;4.18;1.05;;;23.30;52.90;;;;;;5036980;28;20042;-60
2022/09/28 06:28:10;;;;;;;1.58;1.35;;;23.30;52.80;;;;;;5025372;28;20140;-62
2022/09/28 06:30:38;;;;;;;1.55;1.23;;;23.30;52.70;;;;;;5036282;28;20433;-58
2022/09/28 06:33:09;;;;;;;2.25;1.45;;;23.40;52.60;;;;;;5026489;28;20049;-59
2022/09/28 06:35:36;;;;;;;1.70;1.52;;;23.40;52.60;;;;;;5046295;28;20386;-62
2022/09/28 06:38:03;;;;;;;2.83;1.30;;;23.40;52.70;;;;;;5037737;28;20473;-60
2022/09/28 06:40:32;;;;;;;2.35;1.20;;;23.50;52.70;;;;;;5024189;28;20528;-61
2022/09/28 06:43:13;;;;;;;3.72;1.00;;;23.60;52.70;;;;;;5020298;28;20045;-59
2022/09/28 06:45:41;;;;;;;2.15;1.27;;;23.60;52.40;;;;;;5019664;28;20137;-58
2022/09/28 06:48:10;;;;;;;2.88;1.27;;;23.60;52.30;;;;;;5019951;28;20054;-60
2022/09/28 06:50:39;;;;;;;4.05;1.20;;;23.60;52.30;;;;;;5023193;28;20066;-60
2022/09/28 06:53:09;;;;;;;1.40;1.02;;;23.70;52.10;;;;;;5029317;28;20524;-60
2022/09/28 06:55:41;;;;;;;4.50;1.27;;;23.70;51.80;;;;;;5026434;28;20060;-61
2022/09/28 06:58:14;;;;;;;4.18;0.98;;;23.70;51.80;;;;;;5021960;28;20049;-62
2022/09/28 07:00:41;;;;;;;1.58;1.20;;;23.80;51.70;;;;;;5023244;28;20055;-60
2022/09/28 07:03:14;;;;;;;2.65;1.10;;;23.80;51.60;;;;;;5027904;28;20430;-61
2022/09/28 07:05:48;;;;;;;2.75;1.67;;;23.80;51.50;;;;;;5023267;28;20049;-62
2022/09/28 07:08:16;;;;;;;5.35;1.02;;;23.80;51.60;;;;;;5031784;28;20049;-61
2022/09/28 07:10:48;;;;;;;4.93;1.40;;;23.90;51.50;;;;;;5025191;28;20282;-63
2022/09/28 07:13:16;;;;;;;5.07;1.00;;;23.90;51.20;;;;;;5027361;28;20171;-61
2022/09/28 07:16:03;;;;;;;2.03;1.30;;;23.90;51.10;;;;;;5021213;28;20749;-61
2022/09/28 07:18:30;;;;;;;2.00;1.00;;;23.90;50.90;;;;;;5022511;28;20045;-63
2022/09/28 07:20:58;;;;;;;9.90;1.75;;;23.90;50.80;;;;;;5021542;28;20046;-60
2022/09/28 07:23:28;;;;;;;3.97;1.30;;;24.00;50.90;;;;;;5019873;28;20057;-62
2022/09/28 07:25:57;;;;;;;7.60;1.27;;;24.00;50.70;;;;;;5022445;28;20064;-63
2022/09/28 07:28:24;;;;;;;5.65;1.67;;;24.00;50.60;;;;;;5022508;28;20053;-64
2022/09/28 07:30:51;;;;;;;7.30;1.17;;;24.00;50.60;;;;;;5018128;28;20055;-73
2022/09/28 07:33:18;;;;;;;6.35;1.70;;;24.00;50.40;;;;;;5020581;28;20078;-63
2022/09/28 07:35:51;;;;;;;16.10;1.92;;;24.10;50.30;;;;;;5017205;28;20053;-62
2022/09/28 07:38:18;;;;;;;2.53;1.65;;;24.10;50.20;;;;;;5021007;28;20138;-61
2022/09/28 07:43:32;;;;;;;5.78;2.08;;;24.10;50.10;;;;;;5024557;28;20053;-62
2022/09/28 07:46:00;;;;;;;4.18;1.80;;;24.10;50.10;;;;;;5023301;28;20048;-60
2022/09/28 07:48:28;;;;;;;3.50;1.48;;;24.10;50.10;;;;;;5023033;28;20083;-61
2022/09/28 07:50:56;;;;;;;5.63;1.65;;;24.10;50.10;;;;;;5019080;28;20494;-62
2022/09/28 07:53:24;;;;;;;5.88;1.20;;;24.10;50.00;;;;;;5020479;28;20056;-60
2022/09/28 07:56:00;;;;;;;5.35;1.42;;;24.20;50.00;;;;;;5031194;28;20053;-60
2022/09/28 07:58:28;;;;;;;6.65;1.48;;;24.20;50.00;;;;;;5017086;28;20625;-58
2022/09/28 08:00:55;;;;;;;3.08;1.13;;;24.20;50.00;;;;;;5015561;28;20053;-60
2022/09/28 08:03:22;;;;;;;3.35;1.65;;;24.20;50.00;;;;;;5032966;28;20046;-63
2022/09/28 08:05:49;;;;;;;2.70;1.35;;;24.20;50.00;;;;;;5014747;28;20501;-64
2022/09/28 08:08:19;;;;;;;5.45;2.20;;;24.30;50.10;;;;;;5012804;28;20058;-61
2022/09/28 08:10:46;;;;;;;2.60;1.30;;;24.30;50.40;;;;;;5016350;28;20064;-67
2022/09/28 08:13:15;;;;;;;7.65;1.73;;;24.30;50.70;;;;;;5019531;28;20045;-62
2022/09/28 08:15:42;;;;;;;3.55;1.90;;;24.30;50.80;;;;;;5017177;28;20136;-62
2022/09/28 08:18:09;;;;;;;2.88;1.65;;;24.40;50.70;;;;;;5022379;28;20068;-60
2022/09/28 08:23:24;;;;;;;3.70;1.60;;;24.40;50.70;;;;;;5017335;28;20640;-61
2022/09/28 08:25:52;;;;;;;5.53;1.63;;;24.40;49.90;;;;;;5019097;28;20049;-62
2022/09/28 08:28:21;;;;;;;4.35;1.25;;;24.40;49.70;;;;;;5015558;28;20053;-62
2022/09/28 08:30:49;;;;;;;5.40;1.38;;;24.50;49.60;;;;;;5023550;28;20059;-61
2022/09/28 08:33:20;;;;;;;1.52;1.40;;;24.50;49.40;;;;;;5020827;28;20060;-60
2022/09/28 08:35:47;;;;;;;;;;;24.50;49.30;;;;;;5020820;28;20050;-60
2022/09/28 08:38:14;;;;;;;2.80;1.25;;;24.50;49.20;;;;;;5022442;28;19929;-60
2022/09/28 08:40:57;;;;;;;3.38;1.13;;;24.50;49.10;;;;;;5016722;28;20052;-60
2022/09/28 08:43:52;;;;;;;3.28;1.13;;;24.60;49.00;;;;;;5014803;28;20050;-60
2022/09/28 08:46:23;;;;;;;3.38;1.10;;;24.60;48.90;;;;;;5021966;28;20413;-60
2022/09/28 08:49:11;;;;;;;3.70;1.85;;;24.60;49.10;;;;;;5019355;28;20050;-61
2022/09/28 08:52:16;;;;;;;7.60;1.48;;;24.60;49.40;;;;;;5022018;28;20054;-60
2022/09/28 08:55:01;;;;;;;9.57;1.90;;;24.70;49.30;;;;;;5022582;28;20048;-59
2022/09/28 08:58:01;;;;;;;8.88;1.85;;;24.70;49.30;;;;;;5020525;28;20057;-59
2022/09/28 09:00:45;;;;;;;7.03;2.08;;;24.70;49.30;;;;;;5023586;28;20049;-60
2022/09/28 09:03:18;;;;;;;4.68;1.67;;;24.80;49.00;;;;;;5025113;28;20061;-60
2022/09/28 09:06:11;;;;;;;4.25;1.15;;;24.90;48.70;;;;;;5020168;28;20052;-62
2022/09/28 09:09:19;;;;;;;1.70;1.27;;;24.90;48.30;;;;;;5023164;28;20060;-61
2022/09/28 09:12:17;;;;;;;2.70;1.50;;;24.90;48.10;;;;;;5021352;28;20490;-61
2022/09/28 09:15:04;;;;;;;3.55;1.73;;;25.00;48.00;;;;;;5019561;28;20053;-63
2022/09/28 09:17:57;;;;;;;3.05;1.88;;;25.10;47.80;;;;;;5016770;28;20050;-59
2022/09/28 09:21:05;;;;;;;7.22;1.88;;;25.10;47.70;;;;;;5020860;28;20049;-60
2022/09/28 09:23:54;;;;;;;5.47;1.70;;;25.20;47.40;;;;;;5025753;28;20072;-60
2022/09/28 09:26:40;;;;;;;2.13;1.40;;;25.20;47.00;;;;;;5024279;28;20476;-61
2022/09/28 09:29:33;;;;;;;2.70;1.05;;;25.30;46.80;;;;;;5025186;28;20056;-60
2022/09/28 09:32:34;;;;;;;4.80;1.60;;;25.30;46.70;;;;;;5031177;28;20057;-61
2022/09/28 09:35:40;;;;;;;3.63;1.05;;;25.30;46.50;;;;;;5030408;28;20111;-59
2022/09/28 09:38:47;;;;;;;2.60;1.15;;;25.40;46.40;;;;;;5025804;28;21088;-60
2022/09/28 09:41:54;;;;;;;2.63;0.82;;;25.40;46.30;;;;;;5024716;28;20057;-60
2022/09/28 09:44:51;;;;;;;3.20;1.48;;;25.40;46.20;;;;;;5041957;28;20049;-59
2022/09/28 09:47:41;;;;;;;3.28;1.15;;;25.50;46.10;;;;;;5019094;28;20401;-61
2022/09/28 09:50:28;;;;;;;0.98;0.90;;;25.50;46.00;;;;;;5031404;28;20045;-62
2022/09/28 09:53:03;;;;;;;2.63;0.90;;;25.50;45.90;;;;;;5025876;28;20107;-58
2022/09/28 09:55:40;;;;;;;2.17;1.40;;;25.60;46.00;;;;;;5022466;28;20050;-61
2022/09/28 09:58:21;;;;;;;1.70;1.35;;;25.60;45.90;;;;;;5025204;28;20427;-59
2022/09/28 10:00:51;;;;;;;2.10;0.90;;;25.70;45.70;;;;;;5027364;28;20058;-60
2022/09/28 10:03:25;;;;;;;2.15;0.93;;;25.70;45.60;;;;;;5027455;28;20120;-59
2022/09/28 10:06:00;;;;;;;3.08;1.00;;;25.70;45.50;;;;;;5022106;28;20473;-58
2022/09/28 10:08:30;;;;;;;1.05;0.90;;;25.70;45.40;;;;;;5023025;28;20063;-59
2022/09/28 10:11:20;;;;;;;1.07;0.50;;;25.70;45.20;;;;;;5020692;28;20413;-59
2022/09/28 10:13:48;;;;;;;4.47;1.20;;;25.70;45.10;;;;;;5022311;28;20164;-60
2022/09/28 10:16:17;;;;;;;2.28;1.05;;;25.70;45.10;;;;;;5019532;28;20048;-59
2022/09/28 10:18:44;;;;;;;3.33;1.13;;;25.70;44.90;;;;;;5018786;28;20049;-60
2022/09/28 10:21:13;;;;;;;1.33;0.60;;;25.70;44.80;;;;;;5020798;28;21435;-60
2022/09/28 10:23:41;;;;;;;2.23;1.50;;;25.70;44.80;;;;;;5023388;28;20068;-59
2022/09/28 10:26:21;;;;;;;0.63;0.60;;;25.70;44.70;;;;;;5031735;28;20305;-61
2022/09/28 10:29:02;;;;;;;2.72;0.45;;;25.70;44.70;;;;;;5022344;28;20084;-60
2022/09/28 10:31:44;;;;;;;0.95;0.40;;;25.70;44.80;;;;;;5021493;28;20084;-59
2022/09/28 10:34:16;;;;;;;3.35;0.88;;;25.70;44.80;;;;;;5023154;28;20072;-59
2022/09/28 10:37:02;;;;;;;2.80;0.40;;;25.70;44.80;;;;;;5021255;28;20073;-59
2022/09/28 10:39:54;;;;;;;2.25;0.68;;;25.80;44.70;;;;;;5026410;28;20041;-60
2022/09/28 10:42:26;;;;;;;4.18;0.88;;;25.80;44.40;;;;;;5023323;28;20057;-59
2022/09/28 10:44:59;;;;;;;0.60;0.60;;;25.80;44.40;;;;;;5025479;28;20041;-60
2022/09/28 10:47:31;;;;;;;0.70;0.70;;;25.80;44.40;;;;;;5027247;28;20509;-59
2022/09/28 10:49:59;;;;;;;5.18;0.90;;;25.90;44.20;;;;;;5024410;28;20462;-59
2022/09/28 10:52:39;;;;;;;0.90;0.80;;;25.90;44.20;;;;;;5019393;28;20443;-60
2022/09/28 10:55:28;;;;;;;1.08;0.73;;;25.90;44.10;;;;;;5025566;28;20057;-60
2022/09/28 10:57:55;;;;;;;2.45;0.70;;;25.90;43.90;;;;;;5020235;28;20527;-60
2022/09/28 11:00:32;;;;;;;1.10;0.85;;;25.90;43.60;;;;;;5019596;28;20496;-60
2022/09/28 11:03:01;;;;;;;0.77;0.77;;;25.90;44.00;;;;;;5020406;28;20140;-59
2022/09/28 11:05:28;;;;;;;2.90;1.00;;;25.90;43.80;;;;;;5028599;28;20080;-60
2022/09/28 11:08:04;;;;;;;1.67;0.60;;;26.00;43.60;;;;;;5028814;28;20069;-60
2022/09/28 11:10:32;;;;;;;1.95;0.60;;;26.00;43.60;;;;;;5018446;28;20065;-59
2022/09/28 11:12:59;;;;;;;1.30;0.65;;;25.90;43.70;;;;;;5022218;28;20048;-61
2022/09/28 11:15:30;;;;;;;11.63;1.55;;;26.00;43.90;;;;;;5023359;28;20100;-60
2022/09/28 11:18:25;;;;;;;0.95;0.85;;;26.00;43.90;;;;;;5027487;28;20444;-60
2022/09/28 11:21:09;;;;;;;1.85;0.95;;;26.00;43.70;;;;;;5024460;28;20049;-59
2022/09/28 11:23:40;;;;;;;2.13;0.70;;;26.00;43.70;;;;;;5020819;28;20042;-59
2022/09/28 11:26:08;;;;;;;0.57;0.50;;;25.90;43.80;;;;;;5021990;28;20061;-59
2022/09/28 11:28:40;;;;;;;2.33;0.88;;;25.90;44.00;;;;;;5025547;28;20044;-60
2022/09/28 11:31:07;;;;;;;2.15;0.95;;;25.90;44.00;;;;;;5022162;28;20060;-59
2022/09/28 11:33:41;;;;;;;0.93;0.65;;;25.90;43.80;;;;;;5026317;28;20041;-60
2022/09/28 11:36:42;;;;;;;1.85;0.40;;;25.90;43.90;;;;;;5024077;28;21816;-60
2022/09/28 11:39:32;;;;;;;1.13;0.60;;;25.90;44.00;;;;;;5025311;28;20054;-59
2022/09/28 11:42:22;;;;;;;2.10;0.65;;;25.90;44.10;;;;;;5021447;28;20613;-59
2022/09/28 11:45:00;;;;;;;1.58;0.60;;;25.90;43.90;;;;;;5021743;28;20046;-60
2022/09/28 11:47:50;;;;;;;2.65;0.70;;;25.90;43.80;;;;;;5025420;28;20057;-59
2022/09/28 11:50:34;;;;;;;1.30;0.80;;;26.00;44.10;;;;;;5025389;28;20045;-59
2022/09/28 11:53:27;;;;;;;3.40;0.80;;;25.90;44.00;;;;;;5024639;28;20052;-60
2022/09/28 11:56:32;;;;;;;0.93;0.43;;;25.90;43.90;;;;;;5015759;28;20486;-60
2022/09/28 11:59:22;;;;;;;5.47;0.70;;;25.90;43.80;;;;;;5023326;28;20049;-61
2022/09/28 12:01:56;;;;;;;0.68;0.55;;;25.90;43.80;;;;;;5006709;28;20068;-61
2022/09/28 12:04:39;;;;;;;1.08;0.85;;;25.90;43.80;;;;;;5020773;28;20647;-60
2022/09/28 12:07:16;;;;;;;1.70;0.80;;;25.90;43.70;;;;;;5021075;28;20449;-62
2022/09/28 12:10:11;;;;;;;2.25;0.70;;;25.90;43.90;;;;;;5020275;28;20504;-61
2022/09/28 12:12:55;;;;;;;1.75;1.33;;;25.90;43.90;;;;;;5015545;28;20516;-60
2022/09/28 12:15:37;;;;;;;2.17;1.13;;;25.90;43.80;;;;;;5017332;28;20053;-61
2022/09/28 12:18:52;;;;;;;0.98;0.70;;;26.00;43.80;;;;;;5018222;28;20183;-61
2022/09/28 12:21:46;;;;;;;0.80;0.80;;;26.00;43.90;;;;;;5025906;28;20037;-61
2022/09/28 12:24:25;;;;;;;4.65;0.80;;;26.00;43.80;;;;;;5025790;28;20041;-61
2022/09/28 12:27:20;;;;;;;0.85;0.60;;;26.00;43.90;;;;;;5028812;28;20604;-60
2022/09/28 12:30:18;;;;;;;1.02;0.77;;;26.10;43.90;;;;;;5019762;28;20049;-60
2022/09/28 12:33:05;;;;;;;2.25;0.70;;;26.00;43.60;;;;;;5025681;28;21837;-60
2022/09/28 12:36:12;;;;;;;1.75;1.10;;;26.10;43.90;;;;;;5019857;28;20409;-60
2022/09/28 12:39:18;;;;;;;1.45;0.85;;;26.00;43.80;;;;;;5017815;28;20075;-60
2022/09/28 12:42:26;;;;;;;2.92;0.63;;;26.10;44.00;;;;;;5019840;28;20073;-61
2022/09/28 12:45:20;;;;;;;2.85;0.73;;;26.10;43.90;;;;;;5018729;28;20049;-61
2022/09/28 12:48:07;;;;;;;3.97;0.93;;;26.10;43.80;;;;;;5021299;28;20045;-61
2022/09/28 12:51:03;;;;;;;2.80;1.15;;;26.10;44.00;;;;;;5019920;28;20051;-60
2022/09/28 12:53:58;;;;;;;3.92;0.90;;;26.10;43.90;;;;;;5018172;28;20053;-60
2022/09/28 12:56:56;;;;;;;1.88;1.05;;;26.10;43.60;;;;;;5019546;28;20061;-59
2022/09/28 12:59:36;;;;;;;2.50;0.50;;;26.10;43.60;;;;;;5021057;28;20151;-59
2022/09/28 13:02:35;;;;;;;3.38;0.60;;;26.10;43.60;;;;;;5020559;28;20057;-59
2022/09/28 13:05:39;;;;;;;3.33;0.90;;;26.10;43.70;;;;;;5025200;28;20749;-60
2022/09/28 13:08:21;;;;;;;3.00;0.95;;;26.10;43.80;;;;;;5021427;28;20057;-61
2022/09/28 13:11:18;;;;;;;1.77;0.80;;;26.10;43.90;;;;;;5020277;28;20060;-60
2022/09/28 13:14:20;;;;;;;4.35;0.75;;;26.10;44.10;;;;;;5022397;28;20435;-60
2022/09/28 13:17:10;;;;;;;0.98;0.73;;;26.10;44.10;;;;;;5017221;28;20476;-61
2022/09/28 13:20:02;;;;;;;2.78;1.30;;;26.10;43.80;;;;;;5023241;28;20049;-59
2022/09/28 13:22:54;;;;;;;6.13;0.70;;;26.10;44.10;;;;;;5028806;28;20149;-60
2022/09/28 13:25:26;;;;;;;5.15;0.75;;;26.10;44.00;;;;;;5023240;28;20041;-59
2022/09/28 13:28:00;;;;;;;7.63;1.23;;;26.10;44.00;;;;;;5023815;28;20052;-59
2022/09/28 13:30:27;;;;;;;10.02;1.33;;;26.10;43.90;;;;;;5041265;28;20136;-60
2022/09/28 13:32:58;;;;;;;9.18;1.17;;;26.20;44.20;;;;;;5020470;28;20052;-60
2022/09/28 13:35:26;;;;;;;5.78;1.40;;;26.10;44.10;;;;;;5024274;28;20048;-60
2022/09/28 13:38:28;;;;;;;9.70;1.13;;;26.10;44.20;;;;;;5020597;28;20065;-60
2022/09/28 13:41:12;;;;;;;8.02;1.17;;;26.10;44.20;;;;;;5022907;28;20409;-60
2022/09/28 13:44:20;;;;;;;6.80;1.08;;;26.10;44.30;;;;;;5024413;28;20095;-59